Time;durP1;ratioP1;P1;durP2;ratioP2;P2;SDS_P1;SDS_P2;PMS_P1;PMS_P2;Temp;Humidity;BMP_temperature;BMP_pressure;BME280_temperature;BME280_humidity;BME280_pressure;Samples;Min_cycle;Max_cycle;Signal;HPM_P1;HPM_P2
2022/08/05 00:00:13;;;;;;;6.25;3.97;;;;;;;20.64;47.63;93708.63;4989847;28;20065;-62
2022/08/05 00:02:43;;;;;;;5.43;4.00;;;;;;;20.62;48.09;93713.91;4992513;28;20073;-61
2022/08/05 00:05:19;;;;;;;5.95;3.90;;;;;;;20.52;48.09;93708.47;4990767;28;20057;-62
2022/08/05 00:08:05;;;;;;;5.10;3.60;;;;;;;20.52;48.13;93714.03;4989516;28;20069;-62
2022/08/05 00:10:52;;;;;;;5.03;3.60;;;;;;;20.48;48.53;93707.91;4988371;28;20042;-62
2022/08/05 00:13:19;;;;;;;5.30;3.70;;;;;;;20.44;48.37;93710.09;4990974;28;20438;-65
2022/08/05 00:16:05;;;;;;;5.63;4.00;;;;;;;20.43;48.88;93707.81;4984773;28;20051;-62
2022/08/05 00:18:35;;;;;;;5.47;3.90;;;;;;;20.32;49.05;93714.75;4990472;28;20069;-64
2022/08/05 00:21:05;;;;;;;5.40;3.80;;;;;;;20.26;49.44;93705.53;4978713;28;20192;-65
2022/08/05 00:23:35;;;;;;;13.43;8.55;;;;;;;20.27;49.26;93703.53;4994701;28;20051;-61
2022/08/05 00:26:15;;;;;;;7.80;4.53;;;;;;;20.19;49.60;93710.75;4994043;28;20678;-61
2022/08/05 00:28:43;;;;;;;7.63;4.83;;;;;;;20.19;49.34;93711.50;4983071;28;20050;-64
2022/08/05 00:31:12;;;;;;;5.75;4.07;;;;;;;20.19;49.31;93707.97;4978157;28;20061;-62
2022/08/05 00:33:38;;;;;;;5.72;4.10;;;;;;;20.17;49.32;93713.25;4977680;28;20050;-62
2022/08/05 00:36:25;;;;;;;6.50;3.80;;;;;;;20.13;50.01;93714.19;4991611;28;20226;-62
2022/08/05 00:39:12;;;;;;;5.32;3.80;;;;;;;20.04;50.68;93716.31;4973945;28;20433;-63
2022/08/05 00:41:44;;;;;;;6.10;3.80;;;;;;;20.01;50.64;93725.66;4974718;28;20043;-62
2022/08/05 00:44:20;;;;;;;5.15;3.80;;;;;;;19.91;50.90;93738.91;4974216;28;20219;-63
2022/08/05 00:46:49;;;;;;;6.18;3.97;;;;;;;19.83;51.07;93746.88;4987736;28;20403;-62
2022/08/05 00:49:27;;;;;;;5.70;4.00;;;;;;;18.89;54.27;93741.78;4974812;28;20043;-65
2022/08/05 00:51:59;;;;;;;5.55;4.00;;;;;;;18.95;54.96;93754.59;4973836;28;20059;-66
2022/08/05 00:54:25;;;;;;;6.03;3.90;;;;;;;19.02;54.38;93750.66;4974802;28;20065;-66
2022/08/05 00:56:53;;;;;;;5.20;4.18;;;;;;;19.25;53.47;93746.31;4973512;28;20046;-64
2022/08/05 00:59:20;;;;;;;5.50;4.22;;;;;;;19.20;53.80;93749.00;4974255;28;20053;-62
2022/08/05 01:01:47;;;;;;;7.18;4.25;;;;;;;19.29;53.15;93732.22;4975111;28;20047;-66
2022/08/05 01:04:14;;;;;;;6.13;4.38;;;;;;;19.35;53.13;93738.66;4993596;28;20052;-62
2022/08/05 01:06:46;;;;;;;5.37;4.20;;;;;;;19.29;53.91;93740.56;4979100;28;20078;-63
2022/08/05 01:09:14;;;;;;;6.43;4.50;;;;;;;18.96;54.97;93747.75;4982313;28;20053;-63
2022/08/05 01:11:48;;;;;;;6.45;4.18;;;;;;;19.26;54.03;93730.41;4987599;28;20042;-66
2022/08/05 01:14:25;;;;;;;6.63;3.97;;;;;;;19.50;53.39;93730.34;4990526;28;20093;-62
2022/08/05 01:17:08;;;;;;;6.95;4.20;;;;;;;19.65;52.95;93730.34;4984220;28;20058;-63
2022/08/05 01:19:49;;;;;;;5.20;4.03;;;;;;;19.72;52.80;93727.22;4983927;28;20050;-65
2022/08/05 01:22:37;;;;;;;6.38;4.47;;;;;;;19.42;54.06;93720.81;4973178;28;21803;-63
2022/08/05 01:25:23;;;;;;;6.70;4.80;;;;;;;19.21;53.80;93722.69;4973318;28;20050;-63
2022/08/05 01:28:15;;;;;;;6.22;4.47;;;;;;;19.36;53.46;93727.06;4982015;28;20710;-67
2022/08/05 01:31:07;;;;;;;6.15;4.30;;;;;;;19.50;53.44;93725.53;4991147;28;20069;-62
2022/08/05 01:33:41;;;;;;;5.23;4.03;;;;;;;19.60;52.99;93717.88;4975819;28;20057;-63
2022/08/05 01:36:17;;;;;;;5.63;4.25;;;;;;;19.62;52.96;93720.16;4988839;28;20375;-63
2022/08/05 01:38:47;;;;;;;8.35;6.00;;;;;;;19.75;52.57;93718.66;4973464;28;20051;-63
2022/08/05 01:41:19;;;;;;;7.22;4.60;;;;;;;19.75;52.70;93715.09;4973674;28;20435;-62
2022/08/05 01:43:49;;;;;;;6.20;4.80;;;;;;;19.85;52.05;93730.47;4973271;28;20251;-64
2022/08/05 01:46:19;;;;;;;8.70;4.60;;;;;;;19.97;51.65;93720.28;4987304;28;20043;-63
2022/08/05 01:49:09;;;;;;;6.15;4.88;;;;;;;20.00;50.86;93730.47;4973007;28;20050;-63
2022/08/05 01:51:55;;;;;;;8.73;5.47;;;;;;;19.88;51.51;93725.94;4972510;28;20042;-69
2022/08/05 01:54:29;;;;;;;6.30;4.80;;;;;;;19.98;51.39;93730.19;4973692;28;20533;-62
2022/08/05 01:56:58;;;;;;;6.40;4.60;;;;;;;20.02;51.24;93721.59;4972598;28;20039;-62
2022/08/05 01:59:48;;;;;;;6.53;4.47;;;;;;;20.02;51.41;93727.97;4972898;28;20523;-63
2022/08/05 02:02:18;;;;;;;6.53;4.45;;;;;;;20.03;51.55;93731.50;4979199;28;20053;-62
2022/08/05 02:04:57;;;;;;;5.50;4.35;;;;;;;20.06;51.42;93736.91;4992170;28;20050;-62
2022/08/05 02:07:24;;;;;;;6.38;4.40;;;;;;;20.07;51.57;93744.00;4974069;28;20043;-68
2022/08/05 02:09:56;;;;;;;6.13;4.45;;;;;;;20.04;51.92;93741.41;4973880;28;20047;-65
2022/08/05 02:12:32;;;;;;;7.10;4.40;;;;;;;19.50;53.66;93750.59;4992986;28;20156;-66
2022/08/05 02:15:11;;;;;;;7.78;4.57;;;;;;;19.30;54.78;93759.56;4989034;28;20046;-63
2022/08/05 02:17:49;;;;;;;5.95;4.75;;;;;;;19.08;55.63;93784.16;4975471;28;20069;-63
2022/08/05 02:20:48;;;;;;;6.57;4.50;;;;;;;18.94;54.52;93794.75;4972307;28;20051;-63
2022/08/05 02:23:21;;;;;;;7.68;4.50;;;;;;;19.01;53.06;93792.84;4971859;28;20114;-66
2022/08/05 02:25:50;;;;;;;7.23;4.60;;;;;;;19.30;52.08;93800.53;4972686;28;20038;-65
2022/08/05 02:28:24;;;;;;;6.65;4.40;;;;;;;19.53;51.19;93794.16;4986226;28;20057;-67
2022/08/05 02:31:19;;;;;;;6.07;4.75;;;;;;;19.73;50.32;93784.44;4972252;28;20045;-64
2022/08/05 02:33:54;;;;;;;7.22;4.63;;;;;;;19.87;49.61;93786.44;4976063;28;20041;-62
2022/08/05 02:36:25;;;;;;;5.68;4.10;;;;;;;19.98;49.54;93785.91;4984116;28;20385;-66
2022/08/05 02:38:59;;;;;;;6.10;4.10;;;;;;;20.03;49.57;93793.56;4972001;28;20077;-63
2022/08/05 02:41:27;;;;;;;5.93;4.13;;;;;;;20.11;49.42;93802.31;4972589;28;20068;-65
2022/08/05 02:44:16;;;;;;;6.32;4.60;;;;;;;20.18;49.16;93799.13;4990031;28;21362;-65
2022/08/05 02:46:47;;;;;;;32.58;21.70;;;;;;;20.28;49.11;93808.94;4999901;28;20414;-65
2022/08/05 02:49:30;;;;;;;10.73;5.88;;;;;;;20.32;49.17;93815.09;5011446;28;20046;-62
2022/08/05 02:52:06;;;;;;;5.73;4.53;;;;;;;20.31;49.43;93818.34;5010771;28;20034;-63
2022/08/05 02:54:37;;;;;;;5.35;4.10;;;;;;;20.32;49.46;93808.72;5011632;28;20053;-66
2022/08/05 02:57:13;;;;;;;6.30;4.32;;;;;;;20.37;49.37;93822.00;5010254;28;20797;-63
2022/08/05 03:00:00;;;;;;;5.70;4.28;;;;;;;20.34;49.49;93812.59;5010475;28;20050;-63
2022/08/05 03:02:37;;;;;;;7.70;4.15;;;;;;;20.37;50.05;93815.66;5019383;28;20049;-62
2022/08/05 03:05:08;;;;;;;7.93;4.63;;;;;;;20.10;51.42;93814.69;5014189;28;20041;-65
2022/08/05 03:07:36;;;;;;;6.55;4.25;;;;;;;20.15;51.30;93819.59;5011118;28;20050;-63
2022/08/05 03:10:24;;;;;;;6.07;4.30;;;;;;;20.14;50.72;93816.06;5010083;28;20046;-63
2022/08/05 03:12:52;;;;;;;6.85;4.50;;;;;;;20.06;51.06;93814.91;5010530;28;20056;-63
2022/08/05 03:15:21;;;;;;;5.47;4.20;;;;;;;20.13;50.89;93817.28;5009821;28;20046;-63
2022/08/05 03:17:52;;;;;;;6.23;4.23;;;;;;;20.13;51.08;93820.06;5010516;28;20053;-64
2022/08/05 03:20:23;;;;;;;6.65;4.50;;;;;;;20.13;51.18;93820.06;5010931;28;20099;-63
2022/08/05 03:22:52;;;;;;;8.27;4.57;;;;;;;20.07;51.28;93815.66;5009630;28;20052;-62
2022/08/05 03:25:24;;;;;;;5.82;4.25;;;;;;;19.99;51.29;93818.06;4990996;28;20042;-63
2022/08/05 03:28:11;;;;;;;6.45;4.43;;;;;;;20.07;51.28;93810.09;5009539;28;20381;-62
2022/08/05 03:30:40;;;;;;;7.30;4.70;;;;;;;19.98;51.99;93812.97;5010669;28;20107;-66
2022/08/05 03:33:08;;;;;;;6.78;4.10;;;;;;;19.98;52.20;93810.16;5009585;28;20203;-63
2022/08/05 03:35:35;;;;;;;8.32;4.20;;;;;;;19.85;53.13;93822.34;5025961;28;20030;-64
2022/08/05 03:38:09;;;;;;;5.53;3.80;;;;;;;19.88;53.09;93818.63;5009328;28;20980;-62
2022/08/05 03:40:39;;;;;;;5.22;4.00;;;;;;;19.90;53.45;93815.34;5010683;28;20045;-62
2022/08/05 03:43:06;;;;;;;5.13;3.80;;;;;;;19.92;53.15;93819.22;5009472;28;20623;-62
2022/08/05 03:45:53;;;;;;;5.95;4.47;;;;;;;19.52;55.27;93820.47;5010084;28;20065;-62
2022/08/05 03:48:27;;;;;;;6.05;4.60;;;;;;;19.31;56.07;93818.75;5010782;28;20490;-66
2022/08/05 03:51:02;;;;;;;7.53;4.60;;;;;;;19.44;55.47;93822.06;5009831;28;20037;-63
2022/08/05 03:54:00;;;;;;;7.07;4.40;;;;;;;19.50;55.16;93817.38;5010185;28;20046;-65
2022/08/05 03:56:48;;;;;;;6.30;4.40;;;;;;;19.58;54.73;93817.00;5009543;28;20046;-63
2022/08/05 03:59:20;;;;;;;5.95;4.65;;;;;;;19.64;54.52;93818.66;5009786;28;20049;-65
2022/08/05 04:01:52;;;;;;;5.70;4.10;;;;;;;19.70;54.34;93818.78;5012976;28;20394;-66
2022/08/05 04:04:26;;;;;;;6.28;4.57;;;;;;;19.67;54.32;93808.56;5012298;28;20048;-63
2022/08/05 04:06:54;;;;;;;6.35;4.78;;;;;;;19.56;54.52;93811.94;5009811;28;20415;-63
2022/08/05 04:09:22;;;;;;;6.23;4.40;;;;;;;19.65;53.94;93802.72;5009632;28;20038;-62
2022/08/05 04:11:54;;;;;;;6.35;4.18;;;;;;;19.72;53.58;93807.97;5009558;28;20491;-62
2022/08/05 04:14:25;;;;;;;6.97;4.40;;;;;;;19.74;53.51;93814.56;5009877;28;20058;-63
2022/08/05 04:16:59;;;;;;;6.95;4.30;;;;;;;19.74;53.67;93813.81;5009501;28;20042;-63
2022/08/05 04:19:28;;;;;;;5.70;4.30;;;;;;;19.74;53.75;93802.69;5010010;28;20505;-62
2022/08/05 04:21:55;;;;;;;7.50;5.23;;;;;;;19.46;55.12;93808.44;5007706;28;20037;-63
2022/08/05 04:24:42;;;;;;;8.00;4.93;;;;;;;19.19;56.25;93812.19;5010388;28;20056;-65
2022/08/05 04:27:11;;;;;;;6.50;4.38;;;;;;;19.50;55.24;93814.59;5007440;28;20624;-62
2022/08/05 04:29:40;;;;;;;7.15;4.65;;;;;;;19.60;55.45;93822.84;5009609;28;20045;-62
2022/08/05 04:32:08;;;;;;;6.57;4.57;;;;;;;19.66;55.08;93818.16;5008598;28;20723;-62
2022/08/05 04:34:35;;;;;;;6.70;4.70;;;;;;;19.27;56.66;93829.28;5020209;28;20681;-62
2022/08/05 04:37:08;;;;;;;5.97;4.57;;;;;;;19.22;56.44;93816.81;4993986;28;20911;-63
2022/08/05 04:39:36;;;;;;;8.98;4.93;;;;;;;19.40;56.57;93815.13;5009696;28;20454;-64
2022/08/05 04:42:05;;;;;;;6.50;4.22;;;;;;;19.46;56.14;93819.59;5009021;28;20038;-62
2022/08/05 04:44:32;;;;;;;6.18;4.60;;;;;;;19.45;55.98;93818.03;5008403;28;20054;-63
2022/08/05 04:46:58;;;;;;;7.97;4.50;;;;;;;19.41;56.33;93817.44;5009042;28;20042;-63
2022/08/05 04:49:36;;;;;;;7.63;4.90;;;;;;;19.54;55.77;93815.19;4999688;28;20057;-62
2022/08/05 04:52:23;;;;;;;6.50;4.75;;;;;;;19.61;55.33;93819.59;5033583;28;20411;-63
2022/08/05 04:54:53;;;;;;;6.10;4.60;;;;;;;19.70;55.14;93822.31;5009060;28;20133;-66
2022/08/05 04:57:23;;;;;;;6.72;4.72;;;;;;;19.76;55.13;93816.91;5008239;28;20038;-64
2022/08/05 04:59:56;;;;;;;6.67;4.80;;;;;;;19.82;55.18;93816.97;5008303;28;20046;-63
2022/08/05 05:02:25;;;;;;;9.27;5.00;;;;;;;19.41;56.52;93817.44;5003630;28;20058;-64
2022/08/05 05:05:06;;;;;;;6.85;5.10;;;;;;;19.63;55.97;93813.56;5002007;28;20825;-66
2022/08/05 05:08:05;;;;;;;10.65;7.50;;;;;;;19.82;55.60;93823.34;5012268;28;20050;-63
2022/08/05 05:10:45;;;;;;;8.52;5.25;;;;;;;19.89;55.58;93820.16;5013031;28;20072;-64
2022/08/05 05:13:21;;;;;;;7.27;4.97;;;;;;;19.93;55.59;93820.72;5012076;28;20369;-66
2022/08/05 05:15:48;;;;;;;8.10;5.00;;;;;;;;;;5012245;28;20053;-67
2022/08/05 05:18:25;;;;;;;10.98;5.25;;;;;;;19.49;57.08;93837.34;5012819;28;20469;-67
2022/08/05 05:21:00;;;;;;;8.43;5.00;;;;;;;19.74;56.91;93847.22;5012499;28;20041;-68
2022/08/05 05:23:27;;;;;;;10.10;4.95;;;;;;;20.16;55.69;93860.13;5012871;28;20433;-68
2022/08/05 05:26:14;;;;;;;12.53;5.20;;;;;;;20.49;54.61;93873.13;5011581;28;20046;-67
2022/08/05 05:28:40;;;;;;;8.05;5.13;;;;;;;20.80;54.18;93874.66;5012670;28;20407;-67
2022/08/05 05:31:10;;;;;;;8.95;5.60;;;;;;;20.66;54.44;93899.28;5011357;28;20411;-67
2022/08/05 05:33:37;;;;;;;8.98;5.05;;;;;;;20.83;54.06;93904.38;5047023;28;20095;-67
2022/08/05 05:36:24;;;;;;;7.10;4.88;;;;;;;21.58;53.58;93913.34;5016395;28;20406;-66
2022/08/05 05:38:55;;;;;;;10.83;4.80;;;;;;;22.10;52.16;93908.66;5012229;28;20139;-67
2022/08/05 05:41:22;;;;;;;6.57;4.35;;;;;;;22.42;50.80;93903.16;5012091;28;20493;-67
2022/08/05 05:43:49;;;;;;;8.45;4.65;;;;;;;22.59;49.87;93889.31;5011899;28;20556;-67
2022/08/05 05:46:24;;;;;;;9.93;4.55;;;;;;;22.60;50.04;93887.31;5041914;28;20048;-67
2022/08/05 05:48:50;;;;;;;6.70;4.80;;;;;;;22.23;51.80;93901.91;5011887;28;20040;-66
2022/08/05 05:51:20;;;;;;;7.30;5.13;;;;;;;22.01;52.34;93900.41;5011958;28;20396;-66
2022/08/05 05:53:48;;;;;;;8.10;5.00;;;;;;;22.03;52.42;93895.09;5011687;28;20053;-64
2022/08/05 05:56:28;;;;;;;7.43;5.07;;;;;;;22.39;51.94;93898.53;5011810;28;20046;-66
2022/08/05 05:59:04;;;;;;;7.38;5.10;;;;;;;22.49;51.66;93899.16;5011860;28;20127;-65
2022/08/05 06:01:40;;;;;;;8.10;5.18;;;;;;;22.68;50.86;93908.75;5012927;28;20060;-65
2022/08/05 06:04:23;;;;;;;6.07;4.87;;;;;;;22.77;50.58;93907.03;5017202;28;20358;-65
2022/08/05 06:06:50;;;;;;;7.50;5.22;;;;;;;22.56;51.03;93903.53;5011464;28;20056;-65
2022/08/05 06:09:17;;;;;;;11.98;6.13;;;;;;;22.43;50.96;93915.09;5011771;28;20402;-65
2022/08/05 06:12:04;;;;;;;8.48;5.80;;;;;;;22.30;50.69;93912.69;5011132;28;20064;-68
2022/08/05 06:14:35;;;;;;;12.43;6.90;;;;;;;22.59;49.79;93905.34;5011857;28;20511;-65
2022/08/05 06:17:05;;;;;;;9.10;6.00;;;;;;;22.82;49.69;93904.28;5010803;28;20042;-66
2022/08/05 06:19:50;;;;;;;9.82;5.43;;;;;;;25.32;45.02;93899.13;5011028;28;20054;-66
2022/08/05 06:22:27;;;;;;;10.00;5.47;;;;;;;25.02;44.06;93898.88;5011487;28;20042;-63
2022/08/05 06:24:54;;;;;;;11.88;6.15;;;;;;;24.10;45.66;93890.78;5011117;28;20072;-64
2022/08/05 06:27:21;;;;;;;8.45;5.43;;;;;;;23.77;46.37;93888.63;5011269;28;20483;-63
2022/08/05 06:30:14;;;;;;;8.07;5.40;;;;;;;23.63;47.34;93896.69;5010467;28;20042;-65
2022/08/05 06:32:45;;;;;;;8.90;5.60;;;;;;;23.01;48.31;93882.28;4997850;28;20416;-64
2022/08/05 06:35:12;;;;;;;7.75;5.60;;;;;;;23.52;47.19;93877.81;5020761;28;20049;-64
2022/08/05 06:37:59;;;;;;;11.38;5.65;;;;;;;27.85;37.90;93868.63;5010980;28;20092;-65
2022/08/05 06:40:35;;;;;;;8.70;5.70;;;;;;;29.91;34.03;93868.56;5009924;28;20044;-71
2022/08/05 06:43:08;;;;;;;9.40;5.60;;;;;;;29.68;34.35;93866.91;5006620;28;20243;-75
2022/08/05 06:45:54;;;;;;;7.50;4.60;;;;;;;30.75;32.37;93866.03;5009896;28;20042;-76
2022/08/05 06:48:33;;;;;;;9.27;4.65;;;;;;;31.92;30.72;93869.31;5010743;28;20538;-76
2022/08/05 06:51:21;;;;;;;7.80;3.80;;;;;;;34.12;26.87;93879.44;5009278;28;20054;-78
2022/08/05 06:54:00;;;;;;;6.13;3.45;;;;;;;34.62;26.38;93891.06;5009830;28;20060;-73
2022/08/05 06:56:29;;;;;;;5.03;3.80;;;;;;;34.69;25.74;93895.25;5010910;28;20190;-75
2022/08/05 06:59:05;;;;;;;5.30;3.83;;;;;;;34.89;25.83;93902.00;5009925;28;20069;-71
2022/08/05 07:01:37;;;;;;;9.27;4.00;;;;;;;35.98;24.32;93904.28;5004334;28;20060;-71
2022/08/05 07:04:08;;;;;;;7.05;4.30;;;;;;;35.46;24.91;93909.84;5013592;28;20772;-71
2022/08/05 07:06:35;;;;;;;8.43;4.60;;;;;;;34.68;26.38;93905.91;5010720;28;20363;-72
2022/08/05 07:09:03;;;;;;;6.07;4.23;;;;;;;35.98;24.73;93906.41;5009544;28;20041;-71
2022/08/05 07:11:31;;;;;;;6.72;4.05;;;;;;;36.43;24.41;93917.97;5009887;28;20038;-71
2022/08/05 07:17:00;;;;;;;8.32;4.20;;;;;;;35.87;24.69;93916.19;4997331;28;20509;-71
2022/08/05 07:19:49;;;;;;;6.18;3.80;;;;;;;36.89;23.78;93923.91;5009229;28;20050;-71
2022/08/05 07:22:35;;;;;;;8.30;4.00;;;;;;;37.31;23.43;93939.41;5009738;28;20506;-71
2022/08/05 07:25:03;;;;;;;6.88;3.55;;;;;;;35.90;24.76;93937.09;5009011;28;20042;-71
2022/08/05 07:27:51;;;;;;;6.43;3.83;;;;;;;33.93;27.48;93942.50;5008869;28;20049;-70
2022/08/05 07:30:36;;;;;;;5.75;3.95;;;;;;;32.05;29.98;93951.53;5008508;28;21632;-70
2022/08/05 07:33:07;;;;;;;6.43;4.10;;;;;;;31.48;30.89;93954.28;5007529;28;20113;-70
2022/08/05 07:35:41;;;;;;;9.00;4.30;;;;;;;30.60;32.45;93955.16;5012766;28;20058;-70
2022/08/05 07:38:28;;;;;;;7.00;4.40;;;;;;;30.78;32.67;93959.16;5008223;28;20046;-71
2022/08/05 07:41:13;;;;;;;6.65;4.35;;;;;;;33.48;28.70;93966.75;5007094;28;20499;-71
2022/08/05 07:44:01;;;;;;;7.78;4.22;;;;;;;35.27;26.68;93947.44;4999964;28;20442;-72
2022/08/05 07:46:30;;;;;;;6.43;4.57;;;;;;;34.27;27.62;93961.25;5008755;28;20493;-70
2022/08/05 07:49:00;;;;;;;7.60;4.23;;;;;;;33.64;28.02;93965.44;5008410;28;20499;-70
2022/08/05 07:51:36;;;;;;;7.35;4.50;;;;;;;34.15;27.32;93972.31;5008883;28;20048;-71
2022/08/05 07:54:14;;;;;;;6.45;4.10;;;;;;;35.45;26.00;93961.78;5007301;28;20038;-72
2022/08/05 07:56:44;;;;;;;6.40;4.22;;;;;;;35.92;25.10;93965.84;5008748;28;20053;-71
2022/08/05 07:59:30;;;;;;;6.63;3.90;;;;;;;35.97;25.39;93964.84;5008863;28;20050;-71
2022/08/05 08:02:09;;;;;;;7.93;3.90;;;;;;;35.62;25.85;93979.00;5013342;28;20130;-72
2022/08/05 08:04:46;;;;;;;7.72;3.72;;;;;;;37.56;23.78;93985.03;5012982;28;20242;-71
2022/08/05 08:07:16;;;;;;;6.47;4.28;;;;;;;37.81;22.83;93987.72;5008719;28;20041;-72
2022/08/05 08:09:43;;;;;;;6.63;3.90;;;;;;;37.05;23.67;93992.38;5008214;28;20406;-71
2022/08/05 08:12:14;;;;;;;6.40;4.40;;;;;;;35.98;25.25;93987.13;5007337;28;20456;-72
2022/08/05 08:15:02;;;;;;;6.63;4.00;;;;;;;38.55;22.19;93987.69;5008356;28;20044;-72
2022/08/05 08:17:31;;;;;;;7.57;4.50;;;;;;;36.96;24.27;93988.84;5009123;28;20403;-72
2022/08/05 08:19:58;;;;;;;7.65;4.00;;;;;;;38.08;22.40;93987.72;5008716;28;20050;-72
2022/08/05 08:22:54;;;;;;;6.38;4.10;;;;;;;38.50;22.11;93985.88;5008559;28;20050;-72
2022/08/05 08:25:22;;;;;;;7.13;4.40;;;;;;;36.66;23.63;93975.66;5008653;28;20042;-72
2022/08/05 08:28:09;;;;;;;6.50;4.07;;;;;;;36.16;24.49;93970.03;5007650;28;21039;-71
2022/08/05 08:30:45;;;;;;;6.57;3.72;;;;;;;38.05;22.38;93968.84;5008094;28;20053;-71
2022/08/05 08:33:15;;;;;;;6.13;3.90;;;;;;;38.33;22.25;93978.13;5008524;28;20045;-71
2022/08/05 08:35:42;;;;;;;5.63;3.60;;;;;;;39.42;20.79;93981.25;5012210;28;20300;-71
2022/08/05 08:38:29;;;;;;;11.02;6.20;;;;;;;36.53;24.41;93988.16;5008144;28;20422;-71
2022/08/05 08:41:09;;;;;;;5.67;4.00;;;;;;;36.23;24.91;93994.19;5008189;28;20061;-71
2022/08/05 08:43:40;;;;;;;6.40;3.90;;;;;;;37.86;22.98;93980.97;5012468;28;20050;-72
2022/08/05 08:46:29;;;;;;;7.80;4.10;;;;;;;38.21;22.33;93988.66;5011311;28;20511;-71
2022/08/05 08:48:57;;;;;;;6.72;4.15;;;;;;;36.43;24.00;93978.75;5010646;28;20481;-71
2022/08/05 08:51:48;;;;;;;6.10;4.05;;;;;;;35.26;26.14;93979.41;5011832;28;20115;-70
2022/08/05 08:54:30;;;;;;;6.20;4.40;;;;;;;32.98;28.23;93990.50;5012419;28;20419;-69
2022/08/05 08:56:58;;;;;;;7.72;4.50;;;;;;;31.04;32.10;93991.59;5012080;28;20100;-69
2022/08/05 08:59:25;;;;;;;6.78;4.50;;;;;;;30.26;33.53;93995.50;5043706;28;20503;-70
2022/08/05 09:01:54;;;;;;;7.05;5.15;;;;;;;29.93;34.74;93991.22;5036231;28;20126;-69
2022/08/05 09:04:23;;;;;;;8.68;5.50;;;;;;;32.06;31.52;93995.63;5018071;28;20042;-70
2022/08/05 09:06:57;;;;;;;9.93;5.33;;;;;;;32.05;31.81;93982.75;5011867;28;20050;-70
2022/08/05 09:09:24;;;;;;;13.85;5.38;;;;;;;31.25;32.59;93972.56;5011737;28;20130;-70
2022/08/05 09:12:04;;;;;;;7.30;5.22;;;;;;;31.70;31.88;93967.91;5011436;28;20072;-69
2022/08/05 09:14:47;;;;;;;7.22;5.20;;;;;;;30.77;33.19;93980.31;5011247;28;20050;-69
2022/08/05 09:17:30;;;;;;;7.43;4.85;;;;;;;32.30;31.09;93976.66;5011881;28;20038;-70
2022/08/05 09:20:12;;;;;;;7.57;4.50;;;;;;;36.65;24.73;93968.44;5011155;28;20529;-71
2022/08/05 09:23:03;;;;;;;8.32;4.15;;;;;;;36.23;24.61;93977.78;5011616;28;20046;-71
2022/08/05 09:25:33;;;;;;;6.40;3.95;;;;;;;35.47;26.00;93976.25;5011726;28;20056;-71
2022/08/05 09:28:23;;;;;;;6.68;3.40;;;;;;;38.44;22.15;93983.28;5010640;28;21572;-71
2022/08/05 09:31:05;;;;;;;6.35;3.10;;;;;;;39.27;20.67;93985.16;4996539;28;20487;-71
2022/08/05 09:33:59;;;;;;;7.30;3.30;;;;;;;39.92;20.24;93980.50;5015688;28;20494;-71
2022/08/05 09:36:37;;;;;;;5.65;2.95;;;;;;;40.05;19.58;93982.09;4997909;28;20046;-72
2022/08/05 09:39:21;;;;;;;4.03;3.00;;;;;;;37.66;22.16;93985.13;5010511;28;20225;-71
2022/08/05 09:41:55;;;;;;;5.68;3.13;;;;;;;36.87;23.23;93983.81;5010271;28;20060;-71
2022/08/05 09:44:37;;;;;;;7.10;3.28;;;;;;;38.03;21.83;93977.25;5010937;28;20052;-71
2022/08/05 09:47:08;;;;;;;4.80;2.97;;;;;;;39.51;20.38;93962.47;5010973;28;20068;-72
2022/08/05 09:49:50;;;;;;;5.63;3.15;;;;;;;41.11;18.85;93956.88;5011049;28;20502;-72
2022/08/05 09:52:30;;;;;;;6.03;3.20;;;;;;;42.67;17.17;93960.06;5008275;28;20138;-71
2022/08/05 09:55:00;;;;;;;4.10;2.88;;;;;;;43.31;16.64;93961.66;5011079;28;20045;-72
2022/08/05 09:57:47;;;;;;;5.45;3.00;;;;;;;38.90;20.63;93948.03;5010626;28;20473;-72
2022/08/05 10:00:17;;;;;;;5.23;3.13;;;;;;;40.16;19.49;93946.19;5011202;28;20046;-71
2022/08/05 10:02:47;;;;;;;5.47;2.97;;;;;;;41.39;18.63;93937.06;5017515;28;20041;-70
2022/08/05 10:05:17;;;;;;;4.03;2.92;;;;;;;42.26;17.41;93935.28;5011031;28;20080;-71
2022/08/05 10:07:58;;;;;;;5.20;2.97;;;;;;;42.84;16.76;93936.56;5007615;28;20039;-72
2022/08/05 10:10:48;;;;;;;5.18;3.10;;;;;;;41.34;17.91;93932.44;5002084;28;20054;-71
2022/08/05 10:13:32;;;;;;;4.80;3.10;;;;;;;40.10;19.15;93929.25;5010679;28;20483;-72
2022/08/05 10:16:35;;;;;;;4.93;2.92;;;;;;;39.72;19.70;93922.34;5009973;28;20828;-72
2022/08/05 10:19:18;;;;;;;4.70;2.95;;;;;;;41.94;17.96;93919.63;5009594;28;20705;-72
2022/08/05 10:22:07;;;;;;;5.22;2.70;;;;;;;42.81;17.00;93920.50;5010183;28;20064;-72
2022/08/05 10:24:41;;;;;;;5.55;3.00;;;;;;;42.96;17.21;93909.78;5010610;28;20050;-71
2022/08/05 10:27:13;;;;;;;4.23;3.30;;;;;;;38.46;21.00;93916.75;5009688;28;20046;-71
2022/08/05 10:29:42;;;;;;;4.82;3.30;;;;;;;37.83;22.02;93902.00;5009905;28;20128;-70
2022/08/05 10:32:31;;;;;;;5.50;3.42;;;;;;;39.52;20.08;93892.16;5010335;28;20261;-73
2022/08/05 10:35:18;;;;;;;7.55;3.50;;;;;;;37.65;22.60;93903.41;5023554;28;20072;-73
2022/08/05 10:37:46;;;;;;;5.13;3.70;;;;;;;35.92;24.66;93900.16;5010087;28;20164;-70
2022/08/05 10:40:23;;;;;;;5.07;3.60;;;;;;;34.52;26.18;93898.72;5010491;28;20041;-72
2022/08/05 10:43:01;;;;;;;4.30;3.40;;;;;;;35.66;24.44;93890.88;5009690;28;20050;-71
2022/08/05 10:45:31;;;;;;;5.60;3.45;;;;;;;35.40;25.05;93895.81;5010209;28;20107;-72
2022/08/05 10:48:44;;;;;;;5.45;4.20;;;;;;;36.00;24.92;93892.28;5009671;28;20051;-71
2022/08/05 10:51:24;;;;;;;4.85;3.60;;;;;;;36.31;24.20;93898.47;4999327;28;20527;-72
2022/08/05 10:53:59;;;;;;;8.73;3.60;;;;;;;35.09;25.40;93900.91;5009838;28;20058;-72
2022/08/05 10:56:54;;;;;;;6.00;3.92;;;;;;;35.46;25.17;93904.13;5009563;28;20045;-71
2022/08/05 10:59:30;;;;;;;6.25;3.50;;;;;;;36.26;24.21;93901.56;5009828;28;20042;-72
2022/08/05 11:02:17;;;;;;;5.55;3.83;;;;;;;35.74;24.53;93917.25;5015823;28;20434;-70
2022/08/05 11:05:08;;;;;;;6.90;3.92;;;;;;;33.93;27.02;93909.09;4996152;28;20423;-71
2022/08/05 11:07:59;;;;;;;4.83;3.50;;;;;;;33.77;27.79;93911.19;5009811;28;20124;-72
2022/08/05 11:10:36;;;;;;;7.00;3.60;;;;;;;34.35;26.94;93902.19;5008881;28;20318;-71
2022/08/05 11:13:05;;;;;;;5.75;3.40;;;;;;;34.71;26.39;93903.97;5009374;28;20041;-70
2022/08/05 11:15:38;;;;;;;5.18;3.90;;;;;;;32.81;28.27;93911.41;5009628;28;20050;-71
2022/08/05 11:18:26;;;;;;;4.88;4.00;;;;;;;31.52;30.68;93917.81;4992292;28;20099;-72
2022/08/05 11:20:58;;;;;;;6.73;3.97;;;;;;;31.42;31.08;93917.50;4989602;28;20046;-71
2022/08/05 11:23:40;;;;;;;8.23;4.32;;;;;;;30.65;32.24;93916.72;4989756;28;20052;-70
2022/08/05 11:26:27;;;;;;;6.68;4.13;;;;;;;30.22;33.50;93909.34;4974971;28;20295;-70
2022/08/05 11:29:01;;;;;;;7.32;4.53;;;;;;;31.22;31.65;93902.78;4969560;28;20073;-70
2022/08/05 11:31:40;;;;;;;9.13;4.18;;;;;;;31.19;31.82;93895.41;4969368;28;20042;-71
2022/08/05 11:34:40;;;;;;;4.70;3.80;;;;;;;31.90;30.94;93901.06;4983595;28;21009;-72
2022/08/05 11:37:58;;;;;;;4.78;3.83;;;;;;;31.61;31.31;93909.59;4967286;28;20049;-69
2022/08/05 11:41:01;;;;;;;6.47;4.30;;;;;;;31.23;32.05;93898.66;4968170;28;20549;-68
2022/08/05 11:44:01;;;;;;;4.93;4.00;;;;;;;32.04;30.94;93898.91;4969004;28;20039;-69
2022/08/05 11:46:34;;;;;;;6.18;4.13;;;;;;;32.43;30.05;93902.72;4969183;28;20401;-69
2022/08/05 11:49:04;;;;;;;4.70;3.90;;;;;;;32.67;29.96;93886.53;4968650;28;20114;-68
2022/08/05 11:51:34;;;;;;;5.55;4.28;;;;;;;32.07;30.95;93885.69;4969332;28;20081;-69
2022/08/05 11:54:25;;;;;;;6.78;4.63;;;;;;;32.45;30.62;93883.78;4968322;28;20047;-69
2022/08/05 11:57:02;;;;;;;7.43;4.20;;;;;;;32.83;29.48;93880.31;4968623;28;20046;-69
2022/08/05 11:59:49;;;;;;;7.63;4.30;;;;;;;32.87;29.54;93885.66;4968753;28;20066;-68
2022/08/05 12:02:16;;;;;;;6.33;4.17;;;;;;;33.49;28.56;93877.97;4980861;28;20108;-69
2022/08/05 12:04:58;;;;;;;7.00;4.10;;;;;;;33.36;28.57;93881.78;4982570;28;20074;-69
2022/08/05 12:07:33;;;;;;;8.65;4.90;;;;;;;32.79;29.16;93884.88;4969182;28;20054;-69
2022/08/05 12:10:22;;;;;;;5.28;4.38;;;;;;;32.92;29.31;93879.03;4968362;28;20447;-71
2022/08/05 12:12:51;;;;;;;7.30;4.60;;;;;;;33.22;28.14;93872.66;4968399;28;20065;-71
2022/08/05 12:15:25;;;;;;;7.40;4.30;;;;;;;33.29;28.52;93868.31;4981841;28;20496;-70
2022/08/05 12:18:04;;;;;;;6.32;4.15;;;;;;;32.60;29.78;93877.44;4968801;28;20047;-70
2022/08/05 12:20:38;;;;;;;6.78;4.38;;;;;;;32.60;30.05;93882.38;4969046;28;20053;-72